GBOGM EGPH-EGPH

Flight info

Callsign GBOGM
Flight time 0h 37m
Altitude 2000
Route GOSAM DCT INPIP
Aircraft PA24/L-SDGRY/S

Departure

Time 2026-05-04 17:33
Airport Edinburgh Airport (EGPH)

Arrival

Time 2026-05-04 18:10
Airport Edinburgh Airport (EGPH)
Time Latitude Longitude Altitude Speed Heading
2026-05-04 17:16 55.95193 -3.35464 101 ft 0 kts 28°
2026-05-04 17:20 55.95211 -3.35522 101 ft 0 kts 28°
2026-05-04 17:28 55.95215 -3.35521 101 ft 1 kts 335°
2026-05-04 17:29 55.95235 -3.35812 101 ft 7 kts 333°
2026-05-04 17:29 55.95175 -3.36164 101 ft 12 kts 239°
2026-05-04 17:30 55.95177 -3.36335 101 ft 0 kts 332°
2026-05-04 17:31 55.95182 -3.36342 101 ft 3 kts 329°
2026-05-04 17:32 55.95205 -3.36646 102 ft 46 kts 239°
2026-05-04 17:33 55.94562 -3.39677 1126 ft 102 kts 273°
2026-05-04 17:33 55.94731 -3.40958 1400 ft 108 kts 295°
2026-05-04 17:34 55.96547 -3.41809 1114 ft 103 kts 12°
2026-05-04 17:34 55.97136 -3.40983 1146 ft 117 kts 49°
2026-05-04 17:35 55.97731 -3.36537 1324 ft 128 kts 74°
2026-05-04 17:35 55.98161 -3.33614 1306 ft 116 kts 68°
2026-05-04 17:35 55.98409 -3.32248 1233 ft 114 kts 68°
2026-05-04 17:36 55.98648 -3.30912 1191 ft 108 kts 68°
2026-05-04 17:36 55.98879 -3.29667 1126 ft 107 kts 65°
2026-05-04 17:36 55.99138 -3.28408 1185 ft 108 kts 64°
2026-05-04 17:36 55.99417 -3.27144 1240 ft 110 kts 62°
2026-05-04 17:37 55.99590 -3.25821 1241 ft 112 kts 96°
2026-05-04 17:37 55.99191 -3.24702 1225 ft 106 kts 149°
2026-05-04 17:37 55.98556 -3.24579 1243 ft 87 kts 218°
2026-05-04 17:37 55.98330 -3.25501 1207 ft 88 kts 266°
2026-05-04 17:38 55.98258 -3.26596 1236 ft 91 kts 263°
2026-05-04 17:38 55.98124 -3.27752 1124 ft 94 kts 258°
2026-05-04 17:38 55.97858 -3.28791 925 ft 89 kts 244°
2026-05-04 17:38 55.97526 -3.29680 803 ft 83 kts 239°
2026-05-04 17:39 55.96894 -3.31433 743 ft 84 kts 244°
2026-05-04 17:39 55.96605 -3.32364 674 ft 85 kts 244°
2026-05-04 17:39 55.96313 -3.33256 560 ft 82 kts 242°
2026-05-04 17:40 55.96026 -3.34110 421 ft 77 kts 245°
2026-05-04 17:40 55.95767 -3.34900 304 ft 70 kts 241°
2026-05-04 17:40 55.95532 -3.35625 176 ft 65 kts 240°
2026-05-04 17:40 55.95320 -3.36279 103 ft 54 kts 242°
2026-05-04 17:41 55.95115 -3.36908 125 ft 80 kts 238°
2026-05-04 17:41 55.94773 -3.37732 497 ft 85 kts 238°
2026-05-04 17:41 55.94757 -3.38817 808 ft 99 kts 289°
2026-05-04 17:41 55.95319 -3.39647 1125 ft 123 kts 338°
2026-05-04 17:42 55.96263 -3.39637 1277 ft 145 kts 359°
2026-05-04 17:42 55.97248 -3.39121 1370 ft 158 kts 26°
2026-05-04 17:42 55.97890 -3.37456 1425 ft 165 kts 69°
2026-05-04 17:42 55.98061 -3.35423 1410 ft 168 kts 82°
2026-05-04 17:43 55.98161 -3.33326 1327 ft 170 kts 85°
2026-05-04 17:43 55.98224 -3.31240 1310 ft 164 kts 87°
2026-05-04 17:43 55.97828 -3.29560 1224 ft 136 kts 146°
2026-05-04 17:43 55.97128 -3.29526 993 ft 83 kts 234°
2026-05-04 17:44 55.97020 -3.30562 742 ft 92 kts 271°
2026-05-04 17:44 55.96881 -3.31653 643 ft 92 kts 245°
2026-05-04 17:44 55.96555 -3.32656 533 ft 95 kts 243°
2026-05-04 17:44 55.96208 -3.33669 389 ft 98 kts 243°
2026-05-04 17:45 55.95884 -3.34590 250 ft 79 kts 242°
2026-05-04 17:45 55.95618 -3.35381 162 ft 69 kts 240°
2026-05-04 17:45 55.95396 -3.36048 100 ft 54 kts 241°
2026-05-04 17:45 55.95176 -3.36714 148 ft 82 kts 237°
2026-05-04 17:46 55.94874 -3.37563 565 ft 84 kts 255°
2026-05-04 17:46 55.95162 -3.38495 789 ft 110 kts 327°
2026-05-04 17:46 55.95993 -3.38463 1072 ft 126 kts
2026-05-04 17:46 55.96706 -3.37422 1143 ft 143 kts 57°
2026-05-04 17:47 55.96933 -3.35700 1415 ft 146 kts 82°
2026-05-04 17:47 55.97015 -3.33931 1464 ft 140 kts 82°
2026-05-04 17:47 55.97151 -3.32258 1408 ft 133 kts 77°
2026-05-04 17:47 55.96869 -3.31021 1186 ft 105 kts 179°
2026-05-04 17:48 55.96515 -3.31747 883 ft 85 kts 270°
2026-05-04 17:48 55.96538 -3.32734 607 ft 69 kts 256°
2026-05-04 17:48 55.96281 -3.33414 418 ft 67 kts 239°
2026-05-04 17:48 55.96023 -3.34128 295 ft 68 kts 242°
2026-05-04 17:49 55.95786 -3.34858 334 ft 71 kts 239°
2026-05-04 17:49 55.95580 -3.35717 657 ft 86 kts 267°
2026-05-04 17:49 55.95954 -3.36674 1000 ft 111 kts 319°
2026-05-04 17:49 55.96641 -3.37553 1203 ft 130 kts 320°
2026-05-04 17:50 55.97288 -3.38423 1252 ft 108 kts 318°
2026-05-04 17:50 55.97861 -3.39190 1248 ft 98 kts 316°
2026-05-04 17:50 55.98366 -3.39917 1178 ft 91 kts 314°
2026-05-04 17:50 55.98830 -3.40591 1169 ft 83 kts 316°
2026-05-04 17:51 55.99349 -3.41049 1142 ft 85 kts 332°
2026-05-04 17:51 55.99856 -3.40585 1223 ft 98 kts 70°
2026-05-04 17:51 55.99574 -3.39547 1206 ft 98 kts 152°
2026-05-04 17:51 55.98940 -3.39508 1155 ft 92 kts 212°
2026-05-04 17:52 55.98866 -3.40334 1259 ft 79 kts 317°
2026-05-04 17:52 55.99400 -3.39869 1244 ft 108 kts 59°
2026-05-04 17:52 55.99340 -3.38607 1257 ft 104 kts 136°
2026-05-04 17:52 55.98780 -3.38707 1229 ft 85 kts 244°
2026-05-04 17:53 55.98887 -3.39633 1262 ft 85 kts 307°
2026-05-04 17:53 55.99330 -3.40390 1293 ft 89 kts 313°
2026-05-04 17:53 55.99878 -3.40577 1184 ft 112 kts 32°
2026-05-04 17:53 55.99957 -3.39237 1172 ft 114 kts 119°
2026-05-04 17:54 55.99332 -3.38753 1182 ft 96 kts 201°
2026-05-04 17:54 55.99051 -3.39602 1152 ft 83 kts 287°
2026-05-04 17:54 55.99361 -3.40005 1139 ft 92 kts 347°
2026-05-04 17:54 55.99878 -3.39361 1186 ft 100 kts 58°
2026-05-04 17:55 55.99729 -3.38288 1189 ft 96 kts 155°
2026-05-04 17:55 55.99192 -3.38860 1133 ft 80 kts 280°
2026-05-04 17:55 55.99650 -3.39350 1100 ft 90 kts 352°
2026-05-04 17:55 56.00035 -3.38969 1067 ft 103 kts 45°
2026-05-04 17:56 56.00144 -3.37724 1099 ft 108 kts 94°
2026-05-04 17:56 56.00086 -3.36334 1038 ft 114 kts 92°
2026-05-04 17:56 56.00057 -3.34982 1031 ft 107 kts 91°
2026-05-04 17:56 55.99816 -3.33777 1008 ft 104 kts 130°
2026-05-04 17:57 55.99265 -3.33163 1044 ft 86 kts 184°
2026-05-04 17:57 55.98813 -3.33630 1077 ft 76 kts 251°
2026-05-04 17:57 55.99052 -3.34370 1091 ft 85 kts 332°
2026-05-04 17:57 55.99618 -3.33839 1045 ft 115 kts 66°
2026-05-04 17:58 55.99252 -3.32817 1128 ft 102 kts 167°
2026-05-04 17:58 55.98550 -3.32647 1078 ft 106 kts 184°
2026-05-04 17:58 55.97792 -3.32575 1019 ft 109 kts 184°
2026-05-04 17:58 55.97084 -3.32741 908 ft 98 kts 205°
2026-05-04 17:59 55.96521 -3.33277 762 ft 87 kts 225°
2026-05-04 17:59 55.96105 -3.34024 552 ft 82 kts 237°
2026-05-04 17:59 55.95540 -3.35628 182 ft 68 kts 244°
2026-05-04 18:00 55.95331 -3.36266 99 ft 50 kts 239°
2026-05-04 18:00 55.95112 -3.36894 166 ft 78 kts 234°
2026-05-04 18:00 55.94821 -3.37651 572 ft 82 kts 251°
2026-05-04 18:00 55.94917 -3.38732 840 ft 102 kts 308°
2026-05-04 18:01 55.95670 -3.39118 1079 ft 125 kts 352°
2026-05-04 18:01 55.96603 -3.39183 1195 ft 140 kts 351°
2026-05-04 18:01 55.97592 -3.39084 1309 ft 149 kts 14°
2026-05-04 18:02 55.98227 -3.35880 1333 ft 135 kts 95°
2026-05-04 18:02 55.98248 -3.34264 1303 ft 127 kts 81°
2026-05-04 18:02 55.98355 -3.32736 1182 ft 122 kts 79°
2026-05-04 18:02 55.98473 -3.31299 1091 ft 115 kts 78°
2026-05-04 18:03 55.98634 -3.29850 1125 ft 122 kts 76°
2026-05-04 18:03 55.99125 -3.29124 1190 ft 94 kts 311°
2026-05-04 18:03 55.98705 -3.28950 1067 ft 121 kts 111°
2026-05-04 18:03 55.98854 -3.27543 1155 ft 116 kts 46°
2026-05-04 18:04 55.99523 -3.27046 1178 ft 105 kts 347°
2026-05-04 18:04 56.00034 -3.27729 1173 ft 91 kts 289°
2026-05-04 18:04 55.99173 -3.29116 1077 ft 103 kts 202°
2026-05-04 18:05 55.98471 -3.29444 1023 ft 106 kts 201°
2026-05-04 18:05 55.97782 -3.29859 967 ft 101 kts 213°
2026-05-04 18:05 55.97238 -3.30608 855 ft 100 kts 232°
2026-05-04 18:05 55.96851 -3.31607 771 ft 97 kts 241°
2026-05-04 18:06 55.96163 -3.33799 429 ft 104 kts 243°
2026-05-04 18:06 55.95793 -3.34872 234 ft 98 kts 243°
2026-05-04 18:06 55.95464 -3.35855 143 ft 91 kts 241°
2026-05-04 18:07 55.95062 -3.37045 176 ft 132 kts 242°
2026-05-04 18:07 55.94583 -3.38587 374 ft 140 kts 251°
2026-05-04 18:07 55.94821 -3.39975 1007 ft 131 kts 311°
2026-05-04 18:07 55.95744 -3.40547 1102 ft 149 kts 358°
2026-05-04 18:08 55.96524 -3.39323 1187 ft 162 kts 65°
2026-05-04 18:08 55.96687 -3.37379 1443 ft 157 kts 84°
2026-05-04 18:08 55.96820 -3.35475 1537 ft 143 kts 78°
2026-05-04 18:08 55.96980 -3.33808 1314 ft 134 kts 77°
2026-05-04 18:09 55.96398 -3.31952 957 ft 90 kts 233°
2026-05-04 18:09 55.96113 -3.33978 423 ft 79 kts 243°
2026-05-04 18:10 55.95856 -3.34674 265 ft 59 kts 244°
2026-05-04 18:10 55.95642 -3.35320 149 ft 60 kts 243°
2026-05-04 18:10 55.95451 -3.35911 100 ft 48 kts 241°
2026-05-04 18:10 55.95339 -3.36246 98 ft 25 kts 240°
2026-05-04 18:11 55.95269 -3.36404 100 ft 13 kts 188°
2026-05-04 18:11 55.95202 -3.36363 101 ft 8 kts 148°
2026-05-04 18:11 55.95160 -3.36317 101 ft 6 kts 143°
2026-05-04 18:11 55.95149 -3.36251 101 ft 7 kts 74°
2026-05-04 18:12 55.95181 -3.36149 101 ft 12 kts 59°
2026-05-04 18:12 55.95207 -3.36000 101 ft 13 kts 122°
2026-05-04 18:12 55.95137 -3.35916 101 ft 11 kts 135°